sensor_id;sensor_type;location;lat;lon;timestamp;temperature;humidity
7476;DHT22;3779;49.216;8.650;2022-12-08T00:00:40;18.10;35.30
7476;DHT22;3779;49.216;8.650;2022-12-08T00:03:26;18.10;35.70
7476;DHT22;3779;49.216;8.650;2022-12-08T00:06:22;18.10;36.20
7476;DHT22;3779;49.216;8.650;2022-12-08T00:09:36;18.10;36.00
7476;DHT22;3779;49.216;8.650;2022-12-08T00:12:22;18.10;35.90
7476;DHT22;3779;49.216;8.650;2022-12-08T00:15:08;18.10;35.70
7476;DHT22;3779;49.216;8.650;2022-12-08T00:17:54;18.10;35.90
7476;DHT22;3779;49.216;8.650;2022-12-08T00:20:40;18.20;35.80
7476;DHT22;3779;49.216;8.650;2022-12-08T00:23:26;18.10;35.40
7476;DHT22;3779;49.216;8.650;2022-12-08T00:26:13;18.10;35.70
7476;DHT22;3779;49.216;8.650;2022-12-08T00:28:59;18.20;35.60
7476;DHT22;3779;49.216;8.650;2022-12-08T00:31:45;18.20;35.60
7476;DHT22;3779;49.216;8.650;2022-12-08T00:34:31;18.10;35.50
7476;DHT22;3779;49.216;8.650;2022-12-08T00:37:17;18.10;35.70
7476;DHT22;3779;49.216;8.650;2022-12-08T00:40:03;18.10;35.40
7476;DHT22;3779;49.216;8.650;2022-12-08T00:42:49;18.20;35.80
7476;DHT22;3779;49.216;8.650;2022-12-08T00:45:35;18.10;35.70
7476;DHT22;3779;49.216;8.650;2022-12-08T00:48:21;18.20;35.40
7476;DHT22;3779;49.216;8.650;2022-12-08T00:51:07;18.10;35.70
7476;DHT22;3779;49.216;8.650;2022-12-08T00:53:53;18.10;35.60
7476;DHT22;3779;49.216;8.650;2022-12-08T00:56:38;18.20;35.50
7476;DHT22;3779;49.216;8.650;2022-12-08T00:59:24;18.10;35.40
7476;DHT22;3779;49.216;8.650;2022-12-08T01:02:10;18.10;35.40
7476;DHT22;3779;49.216;8.650;2022-12-08T01:04:56;18.10;35.70
7476;DHT22;3779;49.216;8.650;2022-12-08T01:07:42;18.10;35.60
7476;DHT22;3779;49.216;8.650;2022-12-08T01:10:28;18.20;36.00
7476;DHT22;3779;49.216;8.650;2022-12-08T01:13:13;18.10;35.30
7476;DHT22;3779;49.216;8.650;2022-12-08T01:15:59;18.10;35.00
7476;DHT22;3779;49.216;8.650;2022-12-08T01:18:45;18.10;35.00
7476;DHT22;3779;49.216;8.650;2022-12-08T01:21:31;18.10;35.00
7476;DHT22;3779;49.216;8.650;2022-12-08T01:24:20;18.10;34.80
7476;DHT22;3779;49.216;8.650;2022-12-08T01:27:06;18.10;35.00
7476;DHT22;3779;49.216;8.650;2022-12-08T01:29:51;18.10;34.30
7476;DHT22;3779;49.216;8.650;2022-12-08T01:32:37;18.10;34.30
7476;DHT22;3779;49.216;8.650;2022-12-08T01:35:23;18.00;34.10
7476;DHT22;3779;49.216;8.650;2022-12-08T01:38:09;18.00;34.20
7476;DHT22;3779;49.216;8.650;2022-12-08T01:40:55;18.00;34.20
7476;DHT22;3779;49.216;8.650;2022-12-08T01:44:45;18.00;34.10
7476;DHT22;3779;49.216;8.650;2022-12-08T01:47:09;18.00;34.80
7476;DHT22;3779;49.216;8.650;2022-12-08T01:49:55;18.00;34.80
7476;DHT22;3779;49.216;8.650;2022-12-08T01:52:49;18.00;34.50
7476;DHT22;3779;49.216;8.650;2022-12-08T01:55:49;18.00;34.80
7476;DHT22;3779;49.216;8.650;2022-12-08T01:58:40;18.00;34.80
7476;DHT22;3779;49.216;8.650;2022-12-08T02:01:27;18.00;34.50
7476;DHT22;3779;49.216;8.650;2022-12-08T02:04:13;18.00;34.10
7476;DHT22;3779;49.216;8.650;2022-12-08T02:06:59;18.00;34.20
7476;DHT22;3779;49.216;8.650;2022-12-08T02:09:45;18.00;34.10
7476;DHT22;3779;49.216;8.650;2022-12-08T02:12:32;18.00;34.70
7476;DHT22;3779;49.216;8.650;2022-12-08T02:15:18;18.00;34.00
7476;DHT22;3779;49.216;8.650;2022-12-08T02:27:41;18.00;34.60
7476;DHT22;3779;49.216;8.650;2022-12-08T02:30:57;18.00;34.40
7476;DHT22;3779;49.216;8.650;2022-12-08T02:39:29;18.00;34.70
7476;DHT22;3779;49.216;8.650;2022-12-08T02:42:26;18.00;34.20
7476;DHT22;3779;49.216;8.650;2022-12-08T02:45:28;18.00;34.20
7476;DHT22;3779;49.216;8.650;2022-12-08T02:48:15;18.00;34.70
7476;DHT22;3779;49.216;8.650;2022-12-08T02:51:01;18.00;34.40
7476;DHT22;3779;49.216;8.650;2022-12-08T02:53:47;18.00;34.40
7476;DHT22;3779;49.216;8.650;2022-12-08T03:00:17;18.00;34.40
7476;DHT22;3779;49.216;8.650;2022-12-08T03:03:25;18.00;34.50
7476;DHT22;3779;49.216;8.650;2022-12-08T03:06:21;18.00;35.00
7476;DHT22;3779;49.216;8.650;2022-12-08T03:12:27;18.00;35.10
7476;DHT22;3779;49.216;8.650;2022-12-08T03:15:18;18.00;34.90
7476;DHT22;3779;49.216;8.650;2022-12-08T03:18:06;18.00;35.00
7476;DHT22;3779;49.216;8.650;2022-12-08T03:20:52;18.00;34.80
7476;DHT22;3779;49.216;8.650;2022-12-08T03:23:40;18.00;35.40
7476;DHT22;3779;49.216;8.650;2022-12-08T03:26:35;18.00;34.60
7476;DHT22;3779;49.216;8.650;2022-12-08T03:29:23;18.00;34.80
7476;DHT22;3779;49.216;8.650;2022-12-08T03:32:29;18.00;34.90
7476;DHT22;3779;49.216;8.650;2022-12-08T03:35:22;18.00;35.00
7476;DHT22;3779;49.216;8.650;2022-12-08T03:38:12;18.00;35.20
7476;DHT22;3779;49.216;8.650;2022-12-08T03:40:58;18.10;34.80
7476;DHT22;3779;49.216;8.650;2022-12-08T03:44:03;18.10;34.70
7476;DHT22;3779;49.216;8.650;2022-12-08T03:46:49;18.00;34.90
7476;DHT22;3779;49.216;8.650;2022-12-08T03:49:34;18.00;34.70
7476;DHT22;3779;49.216;8.650;2022-12-08T03:52:20;18.00;34.90
7476;DHT22;3779;49.216;8.650;2022-12-08T03:55:07;18.10;35.00
7476;DHT22;3779;49.216;8.650;2022-12-08T03:57:53;18.10;35.20
7476;DHT22;3779;49.216;8.650;2022-12-08T04:00:38;18.10;34.90
7476;DHT22;3779;49.216;8.650;2022-12-08T04:03:24;18.10;35.10
7476;DHT22;3779;49.216;8.650;2022-12-08T04:06:10;18.10;34.90
7476;DHT22;3779;49.216;8.650;2022-12-08T04:08:56;18.10;35.10
7476;DHT22;3779;49.216;8.650;2022-12-08T04:11:42;18.10;34.80
7476;DHT22;3779;49.216;8.650;2022-12-08T04:14:28;18.00;34.90
7476;DHT22;3779;49.216;8.650;2022-12-08T04:17:14;18.10;34.80
7476;DHT22;3779;49.216;8.650;2022-12-08T04:20:00;18.10;35.00
7476;DHT22;3779;49.216;8.650;2022-12-08T04:22:45;18.10;34.90
7476;DHT22;3779;49.216;8.650;2022-12-08T04:25:31;18.10;34.90
7476;DHT22;3779;49.216;8.650;2022-12-08T04:28:17;18.10;35.80
7476;DHT22;3779;49.216;8.650;2022-12-08T04:31:04;18.10;35.30
7476;DHT22;3779;49.216;8.650;2022-12-08T04:33:50;18.10;35.30
7476;DHT22;3779;49.216;8.650;2022-12-08T04:36:35;18.10;35.50
7476;DHT22;3779;49.216;8.650;2022-12-08T04:39:21;18.10;35.10
7476;DHT22;3779;49.216;8.650;2022-12-08T04:42:07;18.10;35.20
7476;DHT22;3779;49.216;8.650;2022-12-08T04:44:53;18.10;35.40
7476;DHT22;3779;49.216;8.650;2022-12-08T04:47:39;18.10;35.30
7476;DHT22;3779;49.216;8.650;2022-12-08T04:50:25;18.10;35.00
7476;DHT22;3779;49.216;8.650;2022-12-08T04:53:12;18.20;35.30
7476;DHT22;3779;49.216;8.650;2022-12-08T04:55:58;18.10;35.30
7476;DHT22;3779;49.216;8.650;2022-12-08T04:58:44;18.10;35.30
7476;DHT22;3779;49.216;8.650;2022-12-08T05:01:30;18.10;35.40
7476;DHT22;3779;49.216;8.650;2022-12-08T05:04:16;18.20;35.30
7476;DHT22;3779;49.216;8.650;2022-12-08T05:07:02;18.10;35.20
7476;DHT22;3779;49.216;8.650;2022-12-08T05:09:48;18.10;35.20
7476;DHT22;3779;49.216;8.650;2022-12-08T05:12:34;18.10;35.30
7476;DHT22;3779;49.216;8.650;2022-12-08T05:15:20;18.10;35.20
7476;DHT22;3779;49.216;8.650;2022-12-08T05:18:05;18.10;34.80
7476;DHT22;3779;49.216;8.650;2022-12-08T05:20:52;18.10;35.30
7476;DHT22;3779;49.216;8.650;2022-12-08T05:23:37;18.10;35.60
7476;DHT22;3779;49.216;8.650;2022-12-08T05:26:23;18.10;35.70
7476;DHT22;3779;49.216;8.650;2022-12-08T05:29:09;18.10;35.40
7476;DHT22;3779;49.216;8.650;2022-12-08T05:31:55;18.20;35.70
7476;DHT22;3779;49.216;8.650;2022-12-08T05:34:41;18.20;35.70
7476;DHT22;3779;49.216;8.650;2022-12-08T05:37:27;18.20;35.90
7476;DHT22;3779;49.216;8.650;2022-12-08T05:40:12;18.20;36.20
7476;DHT22;3779;49.216;8.650;2022-12-08T05:42:58;18.20;35.80
7476;DHT22;3779;49.216;8.650;2022-12-08T05:45:44;18.20;35.60
7476;DHT22;3779;49.216;8.650;2022-12-08T05:48:30;18.20;35.70
7476;DHT22;3779;49.216;8.650;2022-12-08T05:51:18;18.20;35.50
7476;DHT22;3779;49.216;8.650;2022-12-08T05:54:04;18.20;35.80
7476;DHT22;3779;49.216;8.650;2022-12-08T05:56:50;18.20;35.60
7476;DHT22;3779;49.216;8.650;2022-12-08T05:59:36;18.20;36.10
7476;DHT22;3779;49.216;8.650;2022-12-08T06:02:22;18.20;35.80
7476;DHT22;3779;49.216;8.650;2022-12-08T06:05:08;18.20;35.80
7476;DHT22;3779;49.216;8.650;2022-12-08T06:07:54;18.20;35.60
7476;DHT22;3779;49.216;8.650;2022-12-08T06:10:41;18.20;35.40
7476;DHT22;3779;49.216;8.650;2022-12-08T06:13:27;18.10;35.70
7476;DHT22;3779;49.216;8.650;2022-12-08T06:16:13;18.20;35.80
7476;DHT22;3779;49.216;8.650;2022-12-08T06:18:59;18.20;35.50
7476;DHT22;3779;49.216;8.650;2022-12-08T06:21:45;18.10;35.60
7476;DHT22;3779;49.216;8.650;2022-12-08T06:24:31;18.20;36.10
7476;DHT22;3779;49.216;8.650;2022-12-08T06:27:17;18.30;36.80
7476;DHT22;3779;49.216;8.650;2022-12-08T06:30:04;18.40;36.70
7476;DHT22;3779;49.216;8.650;2022-12-08T06:32:50;18.40;35.80
7476;DHT22;3779;49.216;8.650;2022-12-08T06:35:36;18.30;35.60
7476;DHT22;3779;49.216;8.650;2022-12-08T06:38:24;18.30;36.00
7476;DHT22;3779;49.216;8.650;2022-12-08T06:41:11;18.30;35.70
7476;DHT22;3779;49.216;8.650;2022-12-08T06:43:57;18.20;35.60
7476;DHT22;3779;49.216;8.650;2022-12-08T06:46:43;18.20;35.70
7476;DHT22;3779;49.216;8.650;2022-12-08T06:49:29;18.30;36.30
7476;DHT22;3779;49.216;8.650;2022-12-08T06:52:15;18.20;34.90
7476;DHT22;3779;49.216;8.650;2022-12-08T06:55:01;18.20;35.40
7476;DHT22;3779;49.216;8.650;2022-12-08T06:57:47;18.30;37.20
7476;DHT22;3779;49.216;8.650;2022-12-08T07:00:33;18.40;36.10
7476;DHT22;3779;49.216;8.650;2022-12-08T07:03:19;18.40;36.40
7476;DHT22;3779;49.216;8.650;2022-12-08T07:06:05;18.40;35.40
7476;DHT22;3779;49.216;8.650;2022-12-08T07:08:51;18.40;35.60
7476;DHT22;3779;49.216;8.650;2022-12-08T07:11:38;18.40;35.20
7476;DHT22;3779;49.216;8.650;2022-12-08T07:14:24;18.30;35.40
7476;DHT22;3779;49.216;8.650;2022-12-08T07:17:10;18.30;35.30
7476;DHT22;3779;49.216;8.650;2022-12-08T07:19:55;18.20;35.50
7476;DHT22;3779;49.216;8.650;2022-12-08T07:22:50;18.20;35.90
7476;DHT22;3779;49.216;8.650;2022-12-08T07:25:36;18.20;36.30
7476;DHT22;3779;49.216;8.650;2022-12-08T07:28:22;18.20;35.80
7476;DHT22;3779;49.216;8.650;2022-12-08T07:31:19;18.30;41.30
7476;DHT22;3779;49.216;8.650;2022-12-08T07:34:05;18.40;37.70
7476;DHT22;3779;49.216;8.650;2022-12-08T07:36:51;18.40;41.30
7476;DHT22;3779;49.216;8.650;2022-12-08T07:39:37;18.60;37.60
7476;DHT22;3779;49.216;8.650;2022-12-08T07:42:23;18.50;36.40
7476;DHT22;3779;49.216;8.650;2022-12-08T07:45:09;18.50;36.00
7476;DHT22;3779;49.216;8.650;2022-12-08T07:47:55;18.40;36.30
7476;DHT22;3779;49.216;8.650;2022-12-08T07:50:41;18.40;36.10
7476;DHT22;3779;49.216;8.650;2022-12-08T07:53:27;18.40;36.40
7476;DHT22;3779;49.216;8.650;2022-12-08T07:56:13;18.30;36.30
7476;DHT22;3779;49.216;8.650;2022-12-08T07:59:00;18.30;36.20
7476;DHT22;3779;49.216;8.650;2022-12-08T08:01:45;18.30;36.30
7476;DHT22;3779;49.216;8.650;2022-12-08T08:04:33;18.30;36.40
7476;DHT22;3779;49.216;8.650;2022-12-08T08:07:18;18.30;35.80
7476;DHT22;3779;49.216;8.650;2022-12-08T08:10:05;18.30;36.40
7476;DHT22;3779;49.216;8.650;2022-12-08T08:12:51;18.30;35.90
7476;DHT22;3779;49.216;8.650;2022-12-08T08:15:37;18.30;36.00
7476;DHT22;3779;49.216;8.650;2022-12-08T08:18:23;18.30;37.20
7476;DHT22;3779;49.216;8.650;2022-12-08T08:21:09;18.30;36.30
7476;DHT22;3779;49.216;8.650;2022-12-08T08:23:55;18.30;36.50
7476;DHT22;3779;49.216;8.650;2022-12-08T08:26:41;18.20;36.20
7476;DHT22;3779;49.216;8.650;2022-12-08T08:29:27;18.30;36.40
7476;DHT22;3779;49.216;8.650;2022-12-08T08:32:13;18.30;36.30
7476;DHT22;3779;49.216;8.650;2022-12-08T08:34:59;18.30;43.60
7476;DHT22;3779;49.216;8.650;2022-12-08T08:37:46;18.50;38.80
7476;DHT22;3779;49.216;8.650;2022-12-08T08:40:32;18.60;37.00
7476;DHT22;3779;49.216;8.650;2022-12-08T08:43:18;18.50;37.50
7476;DHT22;3779;49.216;8.650;2022-12-08T08:46:16;18.50;36.50
7476;DHT22;3779;49.216;8.650;2022-12-08T08:49:02;18.50;36.80
7476;DHT22;3779;49.216;8.650;2022-12-08T08:51:48;18.40;37.00
7476;DHT22;3779;49.216;8.650;2022-12-08T08:54:34;18.40;36.40
7476;DHT22;3779;49.216;8.650;2022-12-08T08:57:20;18.40;36.40
7476;DHT22;3779;49.216;8.650;2022-12-08T09:00:06;18.40;38.40
7476;DHT22;3779;49.216;8.650;2022-12-08T09:02:55;18.60;39.90
7476;DHT22;3779;49.216;8.650;2022-12-08T09:05:41;18.70;37.40
7476;DHT22;3779;49.216;8.650;2022-12-08T09:08:27;18.60;36.70
7476;DHT22;3779;49.216;8.650;2022-12-08T09:11:13;18.60;36.80
7476;DHT22;3779;49.216;8.650;2022-12-08T09:13:59;18.50;36.70
7476;DHT22;3779;49.216;8.650;2022-12-08T09:16:45;18.50;36.90
7476;DHT22;3779;49.216;8.650;2022-12-08T09:19:31;18.50;36.80
7476;DHT22;3779;49.216;8.650;2022-12-08T09:22:17;18.50;36.70
7476;DHT22;3779;49.216;8.650;2022-12-08T09:25:03;18.50;37.00
7476;DHT22;3779;49.216;8.650;2022-12-08T09:27:49;18.50;36.70
7476;DHT22;3779;49.216;8.650;2022-12-08T09:30:36;18.50;36.60
7476;DHT22;3779;49.216;8.650;2022-12-08T09:33:21;18.40;36.20
7476;DHT22;3779;49.216;8.650;2022-12-08T09:36:08;18.40;36.50
7476;DHT22;3779;49.216;8.650;2022-12-08T09:38:54;18.40;36.90
7476;DHT22;3779;49.216;8.650;2022-12-08T09:41:44;18.30;37.00
7476;DHT22;3779;49.216;8.650;2022-12-08T09:47:59;18.40;38.90
7476;DHT22;3779;49.216;8.650;2022-12-08T09:50:54;18.50;37.50
7476;DHT22;3779;49.216;8.650;2022-12-08T09:53:55;18.50;38.00
7476;DHT22;3779;49.216;8.650;2022-12-08T09:56:42;18.50;38.80
7476;DHT22;3779;49.216;8.650;2022-12-08T09:59:32;18.50;36.50
7476;DHT22;3779;49.216;8.650;2022-12-08T10:02:22;18.50;36.70
7476;DHT22;3779;49.216;8.650;2022-12-08T10:05:12;18.50;36.50
7476;DHT22;3779;49.216;8.650;2022-12-08T10:08:07;18.40;37.60
7476;DHT22;3779;49.216;8.650;2022-12-08T10:10:57;18.50;41.20
7476;DHT22;3779;49.216;8.650;2022-12-08T10:16:41;18.70;39.10
7476;DHT22;3779;49.216;8.650;2022-12-08T10:19:30;18.70;37.40
7476;DHT22;3779;49.216;8.650;2022-12-08T10:22:24;18.70;36.50
7476;DHT22;3779;49.216;8.650;2022-12-08T10:25:29;18.60;34.70
7476;DHT22;3779;49.216;8.650;2022-12-08T10:28:16;18.40;34.70
7476;DHT22;3779;49.216;8.650;2022-12-08T10:31:03;18.30;34.70
7476;DHT22;3779;49.216;8.650;2022-12-08T10:33:57;18.20;34.80
7476;DHT22;3779;49.216;8.650;2022-12-08T10:36:56;18.10;35.10
7476;DHT22;3779;49.216;8.650;2022-12-08T10:39:43;18.10;37.40
7476;DHT22;3779;49.216;8.650;2022-12-08T10:42:36;18.20;37.50
7476;DHT22;3779;49.216;8.650;2022-12-08T10:45:37;18.30;38.50
7476;DHT22;3779;49.216;8.650;2022-12-08T10:48:28;18.40;37.70
7476;DHT22;3779;49.216;8.650;2022-12-08T10:51:26;18.40;37.10
7476;DHT22;3779;49.216;8.650;2022-12-08T10:54:33;18.40;38.60
7476;DHT22;3779;49.216;8.650;2022-12-08T10:57:22;18.50;38.80
7476;DHT22;3779;49.216;8.650;2022-12-08T11:00:14;18.50;36.80
7476;DHT22;3779;49.216;8.650;2022-12-08T11:03:03;18.50;37.00
7476;DHT22;3779;49.216;8.650;2022-12-08T11:05:49;18.50;37.10
7476;DHT22;3779;49.216;8.650;2022-12-08T11:08:47;18.50;36.70
7476;DHT22;3779;49.216;8.650;2022-12-08T11:11:58;18.50;38.60
7476;DHT22;3779;49.216;8.650;2022-12-08T11:14:50;18.60;38.10
7476;DHT22;3779;49.216;8.650;2022-12-08T11:17:39;18.50;37.00
7476;DHT22;3779;49.216;8.650;2022-12-08T11:20:28;18.50;37.10
7476;DHT22;3779;49.216;8.650;2022-12-08T11:23:24;18.50;36.80
7476;DHT22;3779;49.216;8.650;2022-12-08T11:26:26;18.50;37.10
7476;DHT22;3779;49.216;8.650;2022-12-08T11:29:14;18.50;37.80
7476;DHT22;3779;49.216;8.650;2022-12-08T11:35:02;18.50;37.50
7476;DHT22;3779;49.216;8.650;2022-12-08T11:37:49;18.60;37.50
7476;DHT22;3779;49.216;8.650;2022-12-08T11:40:37;18.50;36.90
7476;DHT22;3779;49.216;8.650;2022-12-08T11:46:26;18.60;37.20
7476;DHT22;3779;49.216;8.650;2022-12-08T11:49:13;18.60;37.20
7476;DHT22;3779;49.216;8.650;2022-12-08T11:52:04;18.50;37.00
7476;DHT22;3779;49.216;8.650;2022-12-08T11:59:05;18.50;37.50
7476;DHT22;3779;49.216;8.650;2022-12-08T12:01:29;18.50;36.90
7476;DHT22;3779;49.216;8.650;2022-12-08T12:04:21;18.50;36.30
7476;DHT22;3779;49.216;8.650;2022-12-08T12:13:49;18.50;37.00
7476;DHT22;3779;49.216;8.650;2022-12-08T12:17:05;18.50;37.10
7476;DHT22;3779;49.216;8.650;2022-12-08T12:19:53;18.50;37.00
7476;DHT22;3779;49.216;8.650;2022-12-08T12:22:44;18.60;37.20
7476;DHT22;3779;49.216;8.650;2022-12-08T12:25:31;18.60;36.60
7476;DHT22;3779;49.216;8.650;2022-12-08T12:28:18;18.60;36.80
7476;DHT22;3779;49.216;8.650;2022-12-08T12:31:08;18.60;36.00
7476;DHT22;3779;49.216;8.650;2022-12-08T12:34:05;18.60;36.30
7476;DHT22;3779;49.216;8.650;2022-12-08T12:39:59;18.60;36.30
7476;DHT22;3779;49.216;8.650;2022-12-08T12:45:39;18.50;35.90
7476;DHT22;3779;49.216;8.650;2022-12-08T12:48:28;18.50;36.30
7476;DHT22;3779;49.216;8.650;2022-12-08T12:51:34;18.50;36.70
7476;DHT22;3779;49.216;8.650;2022-12-08T12:54:22;18.60;37.40
7476;DHT22;3779;49.216;8.650;2022-12-08T13:02:46;18.60;35.90
7476;DHT22;3779;49.216;8.650;2022-12-08T13:05:46;18.50;35.90
7476;DHT22;3779;49.216;8.650;2022-12-08T13:08:34;18.50;36.60
7476;DHT22;3779;49.216;8.650;2022-12-08T13:11:20;18.50;35.00
7476;DHT22;3779;49.216;8.650;2022-12-08T13:14:30;18.60;39.90
7476;DHT22;3779;49.216;8.650;2022-12-08T13:17:27;18.70;37.70
7476;DHT22;3779;49.216;8.650;2022-12-08T13:20:22;18.70;36.70
7476;DHT22;3779;49.216;8.650;2022-12-08T13:26:20;18.70;36.50
7476;DHT22;3779;49.216;8.650;2022-12-08T13:29:16;18.60;36.40
7476;DHT22;3779;49.216;8.650;2022-12-08T13:34:56;18.50;36.10
7476;DHT22;3779;49.216;8.650;2022-12-08T13:37:47;18.50;36.10
7476;DHT22;3779;49.216;8.650;2022-12-08T13:40:36;18.50;35.80
7476;DHT22;3779;49.216;8.650;2022-12-08T13:43:32;18.50;35.80
7476;DHT22;3779;49.216;8.650;2022-12-08T13:46:30;18.50;35.20
7476;DHT22;3779;49.216;8.650;2022-12-08T13:49:24;18.40;34.70
7476;DHT22;3779;49.216;8.650;2022-12-08T13:52:28;18.50;44.90
7476;DHT22;3779;49.216;8.650;2022-12-08T13:55:28;18.80;39.40
7476;DHT22;3779;49.216;8.650;2022-12-08T13:58:23;18.80;36.80
7476;DHT22;3779;49.216;8.650;2022-12-08T14:01:21;18.80;36.30
7476;DHT22;3779;49.216;8.650;2022-12-08T14:04:22;18.70;36.30
7476;DHT22;3779;49.216;8.650;2022-12-08T14:07:10;18.70;36.60
7476;DHT22;3779;49.216;8.650;2022-12-08T14:09:56;18.60;35.90
7476;DHT22;3779;49.216;8.650;2022-12-08T14:12:46;18.60;37.20
7476;DHT22;3779;49.216;8.650;2022-12-08T14:15:33;18.60;35.30
7476;DHT22;3779;49.216;8.650;2022-12-08T14:18:25;18.70;38.00
7476;DHT22;3779;49.216;8.650;2022-12-08T14:21:12;18.70;36.00
7476;DHT22;3779;49.216;8.650;2022-12-08T14:24:01;18.60;35.30
7476;DHT22;3779;49.216;8.650;2022-12-08T14:26:50;18.60;35.80
7476;DHT22;3779;49.216;8.650;2022-12-08T14:32:33;18.50;36.00
7476;DHT22;3779;49.216;8.650;2022-12-08T14:35:28;18.50;35.90
7476;DHT22;3779;49.216;8.650;2022-12-08T14:38:16;18.50;35.40
7476;DHT22;3779;49.216;8.650;2022-12-08T14:41:05;18.50;35.70
7476;DHT22;3779;49.216;8.650;2022-12-08T14:44:00;18.50;39.00
7476;DHT22;3779;49.216;8.650;2022-12-08T14:47:07;18.60;37.60
7476;DHT22;3779;49.216;8.650;2022-12-08T14:49:53;18.60;36.50
7476;DHT22;3779;49.216;8.650;2022-12-08T14:52:42;18.60;35.80
7476;DHT22;3779;49.216;8.650;2022-12-08T14:55:34;18.50;36.10
7476;DHT22;3779;49.216;8.650;2022-12-08T14:58:27;18.50;35.90
7476;DHT22;3779;49.216;8.650;2022-12-08T15:01:20;18.50;35.90
7476;DHT22;3779;49.216;8.650;2022-12-08T15:07:30;18.50;35.40
7476;DHT22;3779;49.216;8.650;2022-12-08T15:15:56;18.40;35.80
7476;DHT22;3779;49.216;8.650;2022-12-08T15:18:42;18.40;35.60
7476;DHT22;3779;49.216;8.650;2022-12-08T15:21:29;18.40;35.60
7476;DHT22;3779;49.216;8.650;2022-12-08T15:24:23;18.00;35.50
7476;DHT22;3779;49.216;8.650;2022-12-08T15:27:16;18.50;37.10
7476;DHT22;3779;49.216;8.650;2022-12-08T15:30:03;18.50;36.00
7476;DHT22;3779;49.216;8.650;2022-12-08T15:32:49;18.50;36.30
7476;DHT22;3779;49.216;8.650;2022-12-08T15:35:37;18.50;35.80
7476;DHT22;3779;49.216;8.650;2022-12-08T15:38:25;18.50;35.60
7476;DHT22;3779;49.216;8.650;2022-12-08T15:41:11;18.40;35.60
7476;DHT22;3779;49.216;8.650;2022-12-08T15:43:57;18.40;35.80
7476;DHT22;3779;49.216;8.650;2022-12-08T15:46:43;18.40;35.90
7476;DHT22;3779;49.216;8.650;2022-12-08T15:49:29;18.50;35.70
7476;DHT22;3779;49.216;8.650;2022-12-08T15:52:17;18.40;35.70
7476;DHT22;3779;49.216;8.650;2022-12-08T15:55:04;18.40;35.80
7476;DHT22;3779;49.216;8.650;2022-12-08T15:57:52;18.40;35.70
7476;DHT22;3779;49.216;8.650;2022-12-08T16:00:39;18.40;35.70
7476;DHT22;3779;49.216;8.650;2022-12-08T16:03:29;18.40;38.70
7476;DHT22;3779;49.216;8.650;2022-12-08T16:06:19;18.60;38.90
7476;DHT22;3779;49.216;8.650;2022-12-08T16:09:09;18.70;36.70
7476;DHT22;3779;49.216;8.650;2022-12-08T16:11:59;18.70;37.80
7476;DHT22;3779;49.216;8.650;2022-12-08T16:15:04;18.70;34.70
7476;DHT22;3779;49.216;8.650;2022-12-08T16:17:50;18.80;40.70
7476;DHT22;3779;49.216;8.650;2022-12-08T16:20:37;18.90;37.50
7476;DHT22;3779;49.216;8.650;2022-12-08T16:23:23;18.90;35.50
7476;DHT22;3779;49.216;8.650;2022-12-08T16:26:20;18.80;35.50
7476;DHT22;3779;49.216;8.650;2022-12-08T16:29:07;18.70;36.00
7476;DHT22;3779;49.216;8.650;2022-12-08T16:31:53;18.70;35.70
7476;DHT22;3779;49.216;8.650;2022-12-08T16:34:39;18.70;35.60
7476;DHT22;3779;49.216;8.650;2022-12-08T16:37:26;18.70;35.80
7476;DHT22;3779;49.216;8.650;2022-12-08T16:40:12;18.60;35.50
7476;DHT22;3779;49.216;8.650;2022-12-08T16:42:58;18.60;35.80
7476;DHT22;3779;49.216;8.650;2022-12-08T16:45:44;18.70;35.90
7476;DHT22;3779;49.216;8.650;2022-12-08T16:48:30;18.70;35.40
7476;DHT22;3779;49.216;8.650;2022-12-08T16:51:17;18.60;35.00
7476;DHT22;3779;49.216;8.650;2022-12-08T16:54:06;18.60;37.10
7476;DHT22;3779;49.216;8.650;2022-12-08T16:56:52;18.70;36.90
7476;DHT22;3779;49.216;8.650;2022-12-08T16:59:38;18.70;35.30
7476;DHT22;3779;49.216;8.650;2022-12-08T17:02:24;18.70;36.60
7476;DHT22;3779;49.216;8.650;2022-12-08T17:05:11;18.70;35.40
7476;DHT22;3779;49.216;8.650;2022-12-08T17:08:00;18.70;35.30
7476;DHT22;3779;49.216;8.650;2022-12-08T17:10:46;18.70;35.20
7476;DHT22;3779;49.216;8.650;2022-12-08T17:13:51;18.60;35.10
7476;DHT22;3779;49.216;8.650;2022-12-08T17:16:38;18.60;35.50
7476;DHT22;3779;49.216;8.650;2022-12-08T17:19:24;18.50;40.90
7476;DHT22;3779;49.216;8.650;2022-12-08T17:22:10;18.60;36.90
7476;DHT22;3779;49.216;8.650;2022-12-08T17:24:57;18.70;37.00
7476;DHT22;3779;49.216;8.650;2022-12-08T17:27:43;18.70;35.70
7476;DHT22;3779;49.216;8.650;2022-12-08T17:30:29;18.70;35.70
7476;DHT22;3779;49.216;8.650;2022-12-08T17:33:15;18.70;35.40
7476;DHT22;3779;49.216;8.650;2022-12-08T17:36:01;18.70;36.30
7476;DHT22;3779;49.216;8.650;2022-12-08T17:38:47;18.70;35.60
7476;DHT22;3779;49.216;8.650;2022-12-08T17:41:33;18.60;35.70
7476;DHT22;3779;49.216;8.650;2022-12-08T17:44:19;18.60;35.10
7476;DHT22;3779;49.216;8.650;2022-12-08T17:47:06;18.60;37.80
7476;DHT22;3779;49.216;8.650;2022-12-08T17:49:52;18.80;37.90
7476;DHT22;3779;49.216;8.650;2022-12-08T17:52:38;18.80;36.50
7476;DHT22;3779;49.216;8.650;2022-12-08T17:55:24;18.80;35.90
7476;DHT22;3779;49.216;8.650;2022-12-08T17:58:09;18.90;36.30
7476;DHT22;3779;49.216;8.650;2022-12-08T18:00:55;18.80;35.40
7476;DHT22;3779;49.216;8.650;2022-12-08T18:03:41;18.70;35.20
7476;DHT22;3779;49.216;8.650;2022-12-08T18:06:28;18.70;34.90
7476;DHT22;3779;49.216;8.650;2022-12-08T18:09:14;18.60;35.30
7476;DHT22;3779;49.216;8.650;2022-12-08T18:12:00;18.60;35.00
7476;DHT22;3779;49.216;8.650;2022-12-08T18:14:47;18.60;35.30
7476;DHT22;3779;49.216;8.650;2022-12-08T18:17:32;18.50;35.00
7476;DHT22;3779;49.216;8.650;2022-12-08T18:20:18;18.50;35.30
7476;DHT22;3779;49.216;8.650;2022-12-08T18:23:04;18.50;35.20
7476;DHT22;3779;49.216;8.650;2022-12-08T18:25:50;18.60;35.20
7476;DHT22;3779;49.216;8.650;2022-12-08T18:28:37;18.60;36.40
7476;DHT22;3779;49.216;8.650;2022-12-08T18:31:23;18.70;36.40
7476;DHT22;3779;49.216;8.650;2022-12-08T18:34:09;18.70;35.10
7476;DHT22;3779;49.216;8.650;2022-12-08T18:36:56;18.60;35.10
7476;DHT22;3779;49.216;8.650;2022-12-08T18:39:42;18.60;34.90
7476;DHT22;3779;49.216;8.650;2022-12-08T18:42:27;18.50;34.80
7476;DHT22;3779;49.216;8.650;2022-12-08T18:45:14;18.50;34.80
7476;DHT22;3779;49.216;8.650;2022-12-08T18:47:59;18.50;34.90
7476;DHT22;3779;49.216;8.650;2022-12-08T18:50:46;18.50;35.20
7476;DHT22;3779;49.216;8.650;2022-12-08T18:53:33;18.50;34.90
7476;DHT22;3779;49.216;8.650;2022-12-08T18:56:27;18.50;34.70
7476;DHT22;3779;49.216;8.650;2022-12-08T18:59:13;18.50;35.80
7476;DHT22;3779;49.216;8.650;2022-12-08T19:01:59;18.50;35.00
7476;DHT22;3779;49.216;8.650;2022-12-08T19:04:45;18.50;34.80
7476;DHT22;3779;49.216;8.650;2022-12-08T19:07:31;18.50;35.10
7476;DHT22;3779;49.216;8.650;2022-12-08T19:10:17;18.50;35.10
7476;DHT22;3779;49.216;8.650;2022-12-08T19:13:05;18.50;35.00
7476;DHT22;3779;49.216;8.650;2022-12-08T19:15:51;18.50;35.20
7476;DHT22;3779;49.216;8.650;2022-12-08T19:18:36;18.50;34.70
7476;DHT22;3779;49.216;8.650;2022-12-08T19:21:23;18.50;34.80
7476;DHT22;3779;49.216;8.650;2022-12-08T19:24:10;18.40;34.40
7476;DHT22;3779;49.216;8.650;2022-12-08T19:26:56;18.50;41.90
7476;DHT22;3779;49.216;8.650;2022-12-08T19:29:42;18.80;37.70
7476;DHT22;3779;49.216;8.650;2022-12-08T19:32:28;18.80;35.70
7476;DHT22;3779;49.216;8.650;2022-12-08T19:35:15;18.80;34.80